sensor_id;sensor_type;location;lat;lon;timestamp;P1;durP1;ratioP1;P2;durP2;ratioP2
30681;SDS011;17439;48.092;11.842;2023-02-11T00:01:46;37.50;;;13.93;;
30681;SDS011;17439;48.092;11.842;2023-02-11T00:04:13;31.02;;;11.95;;
30681;SDS011;17439;48.092;11.842;2023-02-11T00:06:39;27.95;;;10.73;;
30681;SDS011;17439;48.092;11.842;2023-02-11T00:09:06;19.60;;;8.02;;
30681;SDS011;17439;48.092;11.842;2023-02-11T00:11:32;16.35;;;7.97;;
30681;SDS011;17439;48.092;11.842;2023-02-11T00:14:00;22.42;;;8.60;;
30681;SDS011;17439;48.092;11.842;2023-02-11T00:16:31;16.27;;;6.55;;
30681;SDS011;17439;48.092;11.842;2023-02-11T00:18:58;16.60;;;7.37;;
30681;SDS011;17439;48.092;11.842;2023-02-11T00:21:26;19.80;;;6.10;;
30681;SDS011;17439;48.092;11.842;2023-02-11T00:23:53;14.75;;;5.93;;
30681;SDS011;17439;48.092;11.842;2023-02-11T00:26:24;16.65;;;5.72;;
30681;SDS011;17439;48.092;11.842;2023-02-11T00:28:53;13.50;;;6.25;;
30681;SDS011;17439;48.092;11.842;2023-02-11T00:31:20;13.57;;;6.15;;
30681;SDS011;17439;48.092;11.842;2023-02-11T00:33:48;23.10;;;7.70;;
30681;SDS011;17439;48.092;11.842;2023-02-11T00:36:17;15.53;;;6.53;;
30681;SDS011;17439;48.092;11.842;2023-02-11T00:38:49;18.73;;;8.00;;
30681;SDS011;17439;48.092;11.842;2023-02-11T00:41:17;18.83;;;8.88;;
30681;SDS011;17439;48.092;11.842;2023-02-11T00:43:44;22.70;;;7.77;;
30681;SDS011;17439;48.092;11.842;2023-02-11T00:46:11;14.45;;;5.70;;
30681;SDS011;17439;48.092;11.842;2023-02-11T00:48:39;16.77;;;7.93;;
30681;SDS011;17439;48.092;11.842;2023-02-11T00:51:05;15.57;;;6.30;;
30681;SDS011;17439;48.092;11.842;2023-02-11T00:53:32;13.63;;;6.10;;
30681;SDS011;17439;48.092;11.842;2023-02-11T00:56:00;15.25;;;6.00;;
30681;SDS011;17439;48.092;11.842;2023-02-11T00:58:27;9.82;;;5.22;;
30681;SDS011;17439;48.092;11.842;2023-02-11T01:00:54;15.77;;;6.20;;
30681;SDS011;17439;48.092;11.842;2023-02-11T01:03:21;11.60;;;5.53;;
30681;SDS011;17439;48.092;11.842;2023-02-11T01:05:47;12.50;;;5.32;;
30681;SDS011;17439;48.092;11.842;2023-02-11T01:08:15;10.82;;;5.05;;
30681;SDS011;17439;48.092;11.842;2023-02-11T01:10:41;13.32;;;5.78;;
30681;SDS011;17439;48.092;11.842;2023-02-11T01:13:08;12.95;;;6.68;;
30681;SDS011;17439;48.092;11.842;2023-02-11T01:15:35;11.38;;;5.22;;
30681;SDS011;17439;48.092;11.842;2023-02-11T01:18:03;10.45;;;4.47;;
30681;SDS011;17439;48.092;11.842;2023-02-11T01:20:30;11.43;;;4.57;;
30681;SDS011;17439;48.092;11.842;2023-02-11T01:22:57;12.50;;;5.00;;
30681;SDS011;17439;48.092;11.842;2023-02-11T01:25:23;11.50;;;4.20;;
30681;SDS011;17439;48.092;11.842;2023-02-11T01:27:50;9.55;;;4.70;;
30681;SDS011;17439;48.092;11.842;2023-02-11T01:30:16;12.48;;;5.40;;
30681;SDS011;17439;48.092;11.842;2023-02-11T01:32:45;9.93;;;4.22;;
30681;SDS011;17439;48.092;11.842;2023-02-11T01:35:12;10.85;;;3.90;;
30681;SDS011;17439;48.092;11.842;2023-02-11T01:37:39;10.15;;;5.55;;
30681;SDS011;17439;48.092;11.842;2023-02-11T01:40:09;8.43;;;3.70;;
30681;SDS011;17439;48.092;11.842;2023-02-11T01:42:39;9.93;;;3.92;;
30681;SDS011;17439;48.092;11.842;2023-02-11T01:48:11;8.00;;;3.42;;
30681;SDS011;17439;48.092;11.842;2023-02-11T01:50:40;7.43;;;3.67;;
30681;SDS011;17439;48.092;11.842;2023-02-11T01:53:08;18.20;;;4.47;;
30681;SDS011;17439;48.092;11.842;2023-02-11T01:55:35;7.85;;;3.63;;
30681;SDS011;17439;48.092;11.842;2023-02-11T01:58:02;9.65;;;3.63;;
30681;SDS011;17439;48.092;11.842;2023-02-11T02:00:34;10.07;;;3.78;;
30681;SDS011;17439;48.092;11.842;2023-02-11T02:05:42;11.07;;;3.60;;
30681;SDS011;17439;48.092;11.842;2023-02-11T02:08:16;8.27;;;3.63;;
30681;SDS011;17439;48.092;11.842;2023-02-11T02:10:49;12.77;;;5.10;;
30681;SDS011;17439;48.092;11.842;2023-02-11T02:13:17;9.98;;;4.47;;
30681;SDS011;17439;48.092;11.842;2023-02-11T02:15:53;7.97;;;4.10;;
30681;SDS011;17439;48.092;11.842;2023-02-11T02:21:12;9.55;;;4.10;;
30681;SDS011;17439;48.092;11.842;2023-02-11T02:32:28;10.48;;;3.90;;
30681;SDS011;17439;48.092;11.842;2023-02-11T02:35:00;9.80;;;3.85;;
30681;SDS011;17439;48.092;11.842;2023-02-11T02:37:33;9.60;;;4.15;;
30681;SDS011;17439;48.092;11.842;2023-02-11T02:40:03;8.32;;;4.25;;
30681;SDS011;17439;48.092;11.842;2023-02-11T02:42:37;4.40;;;2.33;;
30681;SDS011;17439;48.092;11.842;2023-02-11T02:47:32;6.55;;;2.60;;
30681;SDS011;17439;48.092;11.842;2023-02-11T02:49:59;6.28;;;2.95;;
30681;SDS011;17439;48.092;11.842;2023-02-11T02:52:40;7.15;;;3.47;;
30681;SDS011;17439;48.092;11.842;2023-02-11T02:55:30;6.07;;;3.03;;
30681;SDS011;17439;48.092;11.842;2023-02-11T02:58:03;7.65;;;3.38;;
30681;SDS011;17439;48.092;11.842;2023-02-11T03:00:40;6.63;;;2.60;;
30681;SDS011;17439;48.092;11.842;2023-02-11T03:03:21;7.05;;;3.10;;
30681;SDS011;17439;48.092;11.842;2023-02-11T03:08:33;6.72;;;2.78;;
30681;SDS011;17439;48.092;11.842;2023-02-11T03:11:04;8.27;;;3.65;;
30681;SDS011;17439;48.092;11.842;2023-02-11T03:13:33;8.60;;;2.47;;
30681;SDS011;17439;48.092;11.842;2023-02-11T03:16:23;6.32;;;2.58;;
30681;SDS011;17439;48.092;11.842;2023-02-11T03:19:00;6.28;;;2.13;;
30681;SDS011;17439;48.092;11.842;2023-02-11T03:24:02;7.32;;;2.47;;
30681;SDS011;17439;48.092;11.842;2023-02-11T03:26:48;7.78;;;2.22;;
30681;SDS011;17439;48.092;11.842;2023-02-11T03:34:49;7.38;;;3.35;;
30681;SDS011;17439;48.092;11.842;2023-02-11T03:37:22;7.15;;;3.05;;
30681;SDS011;17439;48.092;11.842;2023-02-11T03:39:52;5.47;;;2.35;;
30681;SDS011;17439;48.092;11.842;2023-02-11T03:42:22;7.40;;;3.28;;
30681;SDS011;17439;48.092;11.842;2023-02-11T03:44:52;6.90;;;2.90;;
30681;SDS011;17439;48.092;11.842;2023-02-11T03:47:25;8.40;;;3.05;;
30681;SDS011;17439;48.092;11.842;2023-02-11T03:49:55;5.63;;;2.88;;
30681;SDS011;17439;48.092;11.842;2023-02-11T03:52:24;7.57;;;2.70;;
30681;SDS011;17439;48.092;11.842;2023-02-11T03:54:52;5.95;;;2.92;;
30681;SDS011;17439;48.092;11.842;2023-02-11T03:57:22;5.70;;;2.80;;
30681;SDS011;17439;48.092;11.842;2023-02-11T03:59:50;7.68;;;3.25;;
30681;SDS011;17439;48.092;11.842;2023-02-11T04:02:18;6.80;;;2.65;;
30681;SDS011;17439;48.092;11.842;2023-02-11T04:04:46;6.43;;;2.92;;
30681;SDS011;17439;48.092;11.842;2023-02-11T04:07:13;5.40;;;2.50;;
30681;SDS011;17439;48.092;11.842;2023-02-11T04:09:39;5.13;;;2.35;;
30681;SDS011;17439;48.092;11.842;2023-02-11T04:12:06;5.45;;;2.35;;
30681;SDS011;17439;48.092;11.842;2023-02-11T04:14:33;7.80;;;3.17;;
30681;SDS011;17439;48.092;11.842;2023-02-11T04:17:00;8.33;;;3.17;;
30681;SDS011;17439;48.092;11.842;2023-02-11T04:19:27;7.60;;;3.00;;
30681;SDS011;17439;48.092;11.842;2023-02-11T04:21:53;8.10;;;2.63;;
30681;SDS011;17439;48.092;11.842;2023-02-11T04:24:20;6.22;;;3.55;;
30681;SDS011;17439;48.092;11.842;2023-02-11T04:26:47;7.15;;;2.35;;
30681;SDS011;17439;48.092;11.842;2023-02-11T04:29:13;4.65;;;2.33;;
30681;SDS011;17439;48.092;11.842;2023-02-11T04:31:40;8.05;;;3.33;;
30681;SDS011;17439;48.092;11.842;2023-02-11T04:34:06;6.38;;;2.72;;
30681;SDS011;17439;48.092;11.842;2023-02-11T04:36:33;6.15;;;2.40;;
30681;SDS011;17439;48.092;11.842;2023-02-11T04:38:59;5.93;;;2.70;;
30681;SDS011;17439;48.092;11.842;2023-02-11T04:41:26;6.03;;;2.72;;
30681;SDS011;17439;48.092;11.842;2023-02-11T04:43:53;5.25;;;2.90;;
30681;SDS011;17439;48.092;11.842;2023-02-11T04:46:19;7.65;;;2.67;;
30681;SDS011;17439;48.092;11.842;2023-02-11T04:48:46;8.02;;;2.85;;
30681;SDS011;17439;48.092;11.842;2023-02-11T04:51:12;5.85;;;2.50;;
30681;SDS011;17439;48.092;11.842;2023-02-11T04:53:39;6.95;;;2.92;;
30681;SDS011;17439;48.092;11.842;2023-02-11T04:56:06;7.68;;;3.67;;
30681;SDS011;17439;48.092;11.842;2023-02-11T04:58:33;7.60;;;2.72;;
30681;SDS011;17439;48.092;11.842;2023-02-11T05:01:06;5.55;;;2.90;;
30681;SDS011;17439;48.092;11.842;2023-02-11T05:03:38;5.80;;;2.65;;
30681;SDS011;17439;48.092;11.842;2023-02-11T05:08:32;3.43;;;2.10;;
30681;SDS011;17439;48.092;11.842;2023-02-11T05:10:58;4.15;;;2.10;;
30681;SDS011;17439;48.092;11.842;2023-02-11T05:13:25;6.22;;;2.88;;
30681;SDS011;17439;48.092;11.842;2023-02-11T05:15:51;7.43;;;3.08;;
30681;SDS011;17439;48.092;11.842;2023-02-11T05:18:18;6.53;;;2.33;;
30681;SDS011;17439;48.092;11.842;2023-02-11T05:20:45;4.85;;;2.20;;
30681;SDS011;17439;48.092;11.842;2023-02-11T05:23:12;11.32;;;3.42;;
30681;SDS011;17439;48.092;11.842;2023-02-11T05:25:38;6.97;;;3.00;;
30681;SDS011;17439;48.092;11.842;2023-02-11T05:28:05;5.40;;;2.35;;
30681;SDS011;17439;48.092;11.842;2023-02-11T05:30:32;6.90;;;2.80;;
30681;SDS011;17439;48.092;11.842;2023-02-11T05:32:59;7.07;;;2.83;;
30681;SDS011;17439;48.092;11.842;2023-02-11T05:35:28;5.07;;;2.17;;
30681;SDS011;17439;48.092;11.842;2023-02-11T05:37:55;5.18;;;2.42;;
30681;SDS011;17439;48.092;11.842;2023-02-11T05:40:21;6.32;;;2.33;;
30681;SDS011;17439;48.092;11.842;2023-02-11T05:42:48;9.02;;;3.05;;
30681;SDS011;17439;48.092;11.842;2023-02-11T05:45:14;4.55;;;1.83;;
30681;SDS011;17439;48.092;11.842;2023-02-11T05:47:41;5.40;;;2.03;;
30681;SDS011;17439;48.092;11.842;2023-02-11T05:50:08;4.40;;;1.77;;
30681;SDS011;17439;48.092;11.842;2023-02-11T05:52:34;2.90;;;1.75;;
30681;SDS011;17439;48.092;11.842;2023-02-11T05:55:01;5.75;;;1.67;;
30681;SDS011;17439;48.092;11.842;2023-02-11T05:57:28;6.00;;;2.13;;
30681;SDS011;17439;48.092;11.842;2023-02-11T05:59:54;4.78;;;1.95;;
30681;SDS011;17439;48.092;11.842;2023-02-11T06:02:21;2.97;;;1.23;;
30681;SDS011;17439;48.092;11.842;2023-02-11T06:04:48;5.75;;;1.70;;
30681;SDS011;17439;48.092;11.842;2023-02-11T06:07:14;4.63;;;1.85;;
30681;SDS011;17439;48.092;11.842;2023-02-11T06:09:41;4.53;;;2.05;;
30681;SDS011;17439;48.092;11.842;2023-02-11T06:12:07;4.82;;;1.95;;
30681;SDS011;17439;48.092;11.842;2023-02-11T06:14:34;4.30;;;1.95;;
30681;SDS011;17439;48.092;11.842;2023-02-11T06:17:00;5.50;;;2.00;;
30681;SDS011;17439;48.092;11.842;2023-02-11T06:19:27;3.63;;;2.13;;
30681;SDS011;17439;48.092;11.842;2023-02-11T06:21:54;3.95;;;2.20;;
30681;SDS011;17439;48.092;11.842;2023-02-11T06:24:21;4.95;;;2.05;;
30681;SDS011;17439;48.092;11.842;2023-02-11T06:27:08;6.32;;;2.42;;
30681;SDS011;17439;48.092;11.842;2023-02-11T06:29:35;7.25;;;2.72;;
30681;SDS011;17439;48.092;11.842;2023-02-11T06:32:01;4.88;;;2.20;;
30681;SDS011;17439;48.092;11.842;2023-02-11T06:34:29;3.53;;;1.83;;
30681;SDS011;17439;48.092;11.842;2023-02-11T06:36:55;6.57;;;2.60;;
30681;SDS011;17439;48.092;11.842;2023-02-11T06:39:22;3.22;;;1.80;;
30681;SDS011;17439;48.092;11.842;2023-02-11T06:41:48;4.47;;;1.60;;
30681;SDS011;17439;48.092;11.842;2023-02-11T06:44:15;4.28;;;2.25;;
30681;SDS011;17439;48.092;11.842;2023-02-11T06:46:41;9.73;;;3.22;;
30681;SDS011;17439;48.092;11.842;2023-02-11T06:49:08;8.05;;;3.28;;
30681;SDS011;17439;48.092;11.842;2023-02-11T06:51:35;6.30;;;2.90;;
30681;SDS011;17439;48.092;11.842;2023-02-11T06:54:03;9.43;;;3.47;;
30681;SDS011;17439;48.092;11.842;2023-02-11T06:56:30;10.10;;;4.03;;
30681;SDS011;17439;48.092;11.842;2023-02-11T06:58:57;6.57;;;3.15;;
30681;SDS011;17439;48.092;11.842;2023-02-11T07:01:24;6.78;;;2.88;;
30681;SDS011;17439;48.092;11.842;2023-02-11T07:03:52;6.68;;;3.28;;
30681;SDS011;17439;48.092;11.842;2023-02-11T07:06:20;6.50;;;2.55;;
30681;SDS011;17439;48.092;11.842;2023-02-11T07:08:48;8.02;;;3.47;;
30681;SDS011;17439;48.092;11.842;2023-02-11T07:11:16;7.63;;;3.00;;
30681;SDS011;17439;48.092;11.842;2023-02-11T07:13:45;4.43;;;2.08;;
30681;SDS011;17439;48.092;11.842;2023-02-11T07:16:13;6.95;;;3.30;;
30681;SDS011;17439;48.092;11.842;2023-02-11T07:18:42;7.55;;;3.00;;
30681;SDS011;17439;48.092;11.842;2023-02-11T07:21:09;8.05;;;2.50;;
30681;SDS011;17439;48.092;11.842;2023-02-11T07:23:38;8.23;;;2.30;;
30681;SDS011;17439;48.092;11.842;2023-02-11T07:26:06;5.50;;;2.27;;
30681;SDS011;17439;48.092;11.842;2023-02-11T07:28:34;10.57;;;2.97;;
30681;SDS011;17439;48.092;11.842;2023-02-11T07:31:13;7.68;;;2.97;;
30681;SDS011;17439;48.092;11.842;2023-02-11T07:33:41;7.10;;;3.22;;
30681;SDS011;17439;48.092;11.842;2023-02-11T07:36:09;5.18;;;2.80;;
30681;SDS011;17439;48.092;11.842;2023-02-11T07:38:36;9.02;;;3.28;;
30681;SDS011;17439;48.092;11.842;2023-02-11T07:43:35;6.07;;;2.40;;
30681;SDS011;17439;48.092;11.842;2023-02-11T07:46:07;5.75;;;2.10;;
30681;SDS011;17439;48.092;11.842;2023-02-11T07:48:35;5.03;;;2.72;;
30681;SDS011;17439;48.092;11.842;2023-02-11T07:53:33;6.25;;;2.75;;
30681;SDS011;17439;48.092;11.842;2023-02-11T07:56:01;5.82;;;2.67;;
30681;SDS011;17439;48.092;11.842;2023-02-11T07:58:29;9.60;;;3.15;;
30681;SDS011;17439;48.092;11.842;2023-02-11T08:00:59;9.90;;;3.50;;
30681;SDS011;17439;48.092;11.842;2023-02-11T08:03:30;7.97;;;3.25;;
30681;SDS011;17439;48.092;11.842;2023-02-11T08:05:57;9.13;;;3.30;;
30681;SDS011;17439;48.092;11.842;2023-02-11T08:08:28;11.00;;;3.28;;
30681;SDS011;17439;48.092;11.842;2023-02-11T08:10:54;5.88;;;2.33;;
30681;SDS011;17439;48.092;11.842;2023-02-11T08:13:21;6.20;;;3.10;;
30681;SDS011;17439;48.092;11.842;2023-02-11T08:15:47;11.73;;;2.85;;
30681;SDS011;17439;48.092;11.842;2023-02-11T08:18:15;7.07;;;3.17;;
30681;SDS011;17439;48.092;11.842;2023-02-11T08:20:41;8.48;;;3.20;;
30681;SDS011;17439;48.092;11.842;2023-02-11T08:23:08;8.70;;;3.47;;
30681;SDS011;17439;48.092;11.842;2023-02-11T08:25:34;11.13;;;4.05;;
30681;SDS011;17439;48.092;11.842;2023-02-11T08:28:01;10.27;;;4.35;;
30681;SDS011;17439;48.092;11.842;2023-02-11T08:30:27;11.55;;;5.22;;
30681;SDS011;17439;48.092;11.842;2023-02-11T08:32:54;9.80;;;3.60;;
30681;SDS011;17439;48.092;11.842;2023-02-11T08:35:21;11.15;;;4.75;;
30681;SDS011;17439;48.092;11.842;2023-02-11T08:37:47;13.35;;;4.45;;
30681;SDS011;17439;48.092;11.842;2023-02-11T08:40:14;12.45;;;5.93;;
30681;SDS011;17439;48.092;11.842;2023-02-11T08:42:41;12.85;;;4.53;;
30681;SDS011;17439;48.092;11.842;2023-02-11T08:45:07;9.57;;;4.60;;
30681;SDS011;17439;48.092;11.842;2023-02-11T08:47:34;10.38;;;4.68;;
30681;SDS011;17439;48.092;11.842;2023-02-11T08:50:02;11.10;;;4.82;;
30681;SDS011;17439;48.092;11.842;2023-02-11T08:52:29;11.15;;;4.85;;
30681;SDS011;17439;48.092;11.842;2023-02-11T08:54:56;12.27;;;4.35;;
30681;SDS011;17439;48.092;11.842;2023-02-11T08:57:23;10.85;;;4.60;;
30681;SDS011;17439;48.092;11.842;2023-02-11T08:59:49;14.30;;;5.03;;
30681;SDS011;17439;48.092;11.842;2023-02-11T09:02:16;11.13;;;4.03;;
30681;SDS011;17439;48.092;11.842;2023-02-11T09:04:42;12.60;;;5.35;;
30681;SDS011;17439;48.092;11.842;2023-02-11T09:07:09;17.15;;;5.68;;
30681;SDS011;17439;48.092;11.842;2023-02-11T09:09:36;12.43;;;4.97;;
30681;SDS011;17439;48.092;11.842;2023-02-11T09:12:02;17.00;;;6.25;;
30681;SDS011;17439;48.092;11.842;2023-02-11T09:14:29;12.18;;;5.00;;
30681;SDS011;17439;48.092;11.842;2023-02-11T09:16:56;9.02;;;4.50;;
30681;SDS011;17439;48.092;11.842;2023-02-11T09:19:22;15.98;;;5.03;;
30681;SDS011;17439;48.092;11.842;2023-02-11T09:21:49;9.40;;;3.85;;
30681;SDS011;17439;48.092;11.842;2023-02-11T09:24:16;14.45;;;5.88;;
30681;SDS011;17439;48.092;11.842;2023-02-11T09:26:42;10.32;;;4.80;;
30681;SDS011;17439;48.092;11.842;2023-02-11T09:29:09;12.15;;;4.32;;
30681;SDS011;17439;48.092;11.842;2023-02-11T09:31:36;10.20;;;3.63;;
30681;SDS011;17439;48.092;11.842;2023-02-11T09:34:03;11.55;;;4.25;;
30681;SDS011;17439;48.092;11.842;2023-02-11T09:36:32;10.88;;;4.00;;
30681;SDS011;17439;48.092;11.842;2023-02-11T09:39:04;15.25;;;4.10;;
30681;SDS011;17439;48.092;11.842;2023-02-11T09:41:41;9.13;;;4.07;;
30681;SDS011;17439;48.092;11.842;2023-02-11T09:44:29;9.80;;;4.40;;
30681;SDS011;17439;48.092;11.842;2023-02-11T09:47:05;14.65;;;4.85;;
30681;SDS011;17439;48.092;11.842;2023-02-11T09:49:47;12.65;;;4.05;;
30681;SDS011;17439;48.092;11.842;2023-02-11T09:52:25;12.70;;;5.32;;
30681;SDS011;17439;48.092;11.842;2023-02-11T09:54:58;11.63;;;4.50;;
30681;SDS011;17439;48.092;11.842;2023-02-11T09:57:39;13.82;;;4.80;;
30681;SDS011;17439;48.092;11.842;2023-02-11T10:06:00;12.40;;;5.15;;
30681;SDS011;17439;48.092;11.842;2023-02-11T10:11:24;14.07;;;5.55;;
30681;SDS011;17439;48.092;11.842;2023-02-11T10:14:20;17.92;;;5.15;;
30681;SDS011;17439;48.092;11.842;2023-02-11T10:22:53;12.30;;;5.25;;
30681;SDS011;17439;48.092;11.842;2023-02-11T10:27:51;11.93;;;5.45;;
30681;SDS011;17439;48.092;11.842;2023-02-11T10:35:49;13.35;;;4.47;;
30681;SDS011;17439;48.092;11.842;2023-02-11T10:38:15;12.98;;;6.05;;
30681;SDS011;17439;48.092;11.842;2023-02-11T10:40:42;11.90;;;5.13;;
30681;SDS011;17439;48.092;11.842;2023-02-11T10:43:13;15.38;;;5.75;;
30681;SDS011;17439;48.092;11.842;2023-02-11T10:45:46;14.13;;;5.25;;
30681;SDS011;17439;48.092;11.842;2023-02-11T10:48:37;16.42;;;5.68;;
30681;SDS011;17439;48.092;11.842;2023-02-11T10:51:11;12.90;;;5.43;;
30681;SDS011;17439;48.092;11.842;2023-02-11T10:53:42;12.60;;;6.28;;
30681;SDS011;17439;48.092;11.842;2023-02-11T10:56:10;14.90;;;6.78;;
30681;SDS011;17439;48.092;11.842;2023-02-11T10:58:46;15.77;;;6.55;;
30681;SDS011;17439;48.092;11.842;2023-02-11T11:01:44;23.52;;;5.68;;
30681;SDS011;17439;48.092;11.842;2023-02-11T11:04:49;18.42;;;5.75;;
30681;SDS011;17439;48.092;11.842;2023-02-11T11:07:13;15.32;;;6.35;;
30681;SDS011;17439;48.092;11.842;2023-02-11T11:10:05;16.25;;;6.47;;
30681;SDS011;17439;48.092;11.842;2023-02-11T11:12:50;15.10;;;5.97;;
30681;SDS011;17439;48.092;11.842;2023-02-11T11:17:48;23.55;;;7.18;;
30681;SDS011;17439;48.092;11.842;2023-02-11T11:25:43;14.55;;;5.68;;
30681;SDS011;17439;48.092;11.842;2023-02-11T11:28:24;13.35;;;5.18;;
30681;SDS011;17439;48.092;11.842;2023-02-11T11:30:53;16.48;;;6.97;;
30681;SDS011;17439;48.092;11.842;2023-02-11T11:33:23;13.80;;;5.53;;
30681;SDS011;17439;48.092;11.842;2023-02-11T11:35:54;15.23;;;6.05;;
30681;SDS011;17439;48.092;11.842;2023-02-11T11:38:26;17.33;;;6.20;;
30681;SDS011;17439;48.092;11.842;2023-02-11T11:41:16;13.55;;;5.65;;
30681;SDS011;17439;48.092;11.842;2023-02-11T11:44:13;11.05;;;5.72;;
30681;SDS011;17439;48.092;11.842;2023-02-11T11:46:46;10.73;;;5.20;;
30681;SDS011;17439;48.092;11.842;2023-02-11T11:49:19;13.57;;;5.55;;
30681;SDS011;17439;48.092;11.842;2023-02-11T11:54:36;18.08;;;5.85;;
30681;SDS011;17439;48.092;11.842;2023-02-11T11:57:09;15.63;;;5.57;;
30681;SDS011;17439;48.092;11.842;2023-02-11T11:59:40;11.95;;;5.00;;
30681;SDS011;17439;48.092;11.842;2023-02-11T12:02:10;10.48;;;5.63;;
30681;SDS011;17439;48.092;11.842;2023-02-11T12:12:43;11.70;;;4.60;;
30681;SDS011;17439;48.092;11.842;2023-02-11T12:18:14;11.90;;;4.70;;
30681;SDS011;17439;48.092;11.842;2023-02-11T12:23:37;11.27;;;4.15;;
30681;SDS011;17439;48.092;11.842;2023-02-11T12:26:12;15.82;;;5.32;;
30681;SDS011;17439;48.092;11.842;2023-02-11T12:31:22;8.77;;;4.15;;
30681;SDS011;17439;48.092;11.842;2023-02-11T12:34:13;15.45;;;6.65;;
30681;SDS011;17439;48.092;11.842;2023-02-11T12:37:13;16.83;;;5.38;;
30681;SDS011;17439;48.092;11.842;2023-02-11T12:42:37;31.80;;;9.00;;
30681;SDS011;17439;48.092;11.842;2023-02-11T12:51:09;18.65;;;6.80;;
30681;SDS011;17439;48.092;11.842;2023-02-11T12:53:54;12.93;;;5.45;;
30681;SDS011;17439;48.092;11.842;2023-02-11T12:56:36;21.25;;;7.25;;
30681;SDS011;17439;48.092;11.842;2023-02-11T12:59:16;14.07;;;5.03;;
30681;SDS011;17439;48.092;11.842;2023-02-11T13:01:57;15.43;;;5.57;;
30681;SDS011;17439;48.092;11.842;2023-02-11T13:04:34;14.13;;;5.38;;
30681;SDS011;17439;48.092;11.842;2023-02-11T13:07:10;17.77;;;5.65;;
30681;SDS011;17439;48.092;11.842;2023-02-11T13:09:42;12.73;;;4.47;;
30681;SDS011;17439;48.092;11.842;2023-02-11T13:12:16;11.43;;;4.07;;
30681;SDS011;17439;48.092;11.842;2023-02-11T13:14:43;10.10;;;4.47;;
30681;SDS011;17439;48.092;11.842;2023-02-11T13:17:16;10.25;;;4.95;;
30681;SDS011;17439;48.092;11.842;2023-02-11T13:19:51;11.93;;;4.35;;
30681;SDS011;17439;48.092;11.842;2023-02-11T13:30:59;13.95;;;3.67;;
30681;SDS011;17439;48.092;11.842;2023-02-11T13:33:37;8.68;;;3.90;;
30681;SDS011;17439;48.092;11.842;2023-02-11T13:38:31;8.80;;;3.40;;
30681;SDS011;17439;48.092;11.842;2023-02-11T13:41:18;14.02;;;5.75;;
30681;SDS011;17439;48.092;11.842;2023-02-11T13:44:00;13.13;;;4.50;;
30681;SDS011;17439;48.092;11.842;2023-02-11T13:46:46;15.15;;;4.72;;
30681;SDS011;17439;48.092;11.842;2023-02-11T13:49:22;16.67;;;4.22;;
30681;SDS011;17439;48.092;11.842;2023-02-11T13:51:52;9.57;;;3.83;;
30681;SDS011;17439;48.092;11.842;2023-02-11T13:54:38;10.80;;;4.53;;
30681;SDS011;17439;48.092;11.842;2023-02-11T13:57:20;18.75;;;4.72;;
30681;SDS011;17439;48.092;11.842;2023-02-11T13:59:57;11.38;;;4.53;;
30681;SDS011;17439;48.092;11.842;2023-02-11T14:07:29;8.27;;;4.65;;
30681;SDS011;17439;48.092;11.842;2023-02-11T14:09:58;10.05;;;4.28;;
30681;SDS011;17439;48.092;11.842;2023-02-11T14:12:30;10.55;;;5.28;;
30681;SDS011;17439;48.092;11.842;2023-02-11T14:15:20;12.00;;;4.38;;
30681;SDS011;17439;48.092;11.842;2023-02-11T14:17:45;11.30;;;4.75;;
30681;SDS011;17439;48.092;11.842;2023-02-11T14:20:34;9.02;;;4.03;;
30681;SDS011;17439;48.092;11.842;2023-02-11T14:23:15;9.50;;;3.95;;
30681;SDS011;17439;48.092;11.842;2023-02-11T14:25:52;11.85;;;4.45;;
30681;SDS011;17439;48.092;11.842;2023-02-11T14:28:28;12.68;;;5.10;;
30681;SDS011;17439;48.092;11.842;2023-02-11T14:31:03;10.73;;;4.93;;
30681;SDS011;17439;48.092;11.842;2023-02-11T14:33:47;11.82;;;4.63;;
30681;SDS011;17439;48.092;11.842;2023-02-11T14:36:44;14.30;;;4.68;;
30681;SDS011;17439;48.092;11.842;2023-02-11T14:41:55;11.25;;;5.25;;
30681;SDS011;17439;48.092;11.842;2023-02-11T14:44:24;13.23;;;5.40;;
30681;SDS011;17439;48.092;11.842;2023-02-11T14:46:53;13.13;;;4.97;;
30681;SDS011;17439;48.092;11.842;2023-02-11T14:49:30;15.47;;;5.70;;
30681;SDS011;17439;48.092;11.842;2023-02-11T14:52:05;20.05;;;6.82;;
30681;SDS011;17439;48.092;11.842;2023-02-11T14:54:40;15.27;;;6.40;;
30681;SDS011;17439;48.092;11.842;2023-02-11T14:57:12;15.85;;;6.45;;
30681;SDS011;17439;48.092;11.842;2023-02-11T14:59:56;14.88;;;6.72;;
30681;SDS011;17439;48.092;11.842;2023-02-11T15:02:27;15.52;;;5.93;;
30681;SDS011;17439;48.092;11.842;2023-02-11T15:07:49;16.38;;;5.90;;
30681;SDS011;17439;48.092;11.842;2023-02-11T15:10:32;17.00;;;6.78;;
30681;SDS011;17439;48.092;11.842;2023-02-11T15:13:00;17.67;;;7.00;;
30681;SDS011;17439;48.092;11.842;2023-02-11T15:15:28;27.92;;;6.85;;
30681;SDS011;17439;48.092;11.842;2023-02-11T15:17:58;18.25;;;7.65;;
30681;SDS011;17439;48.092;11.842;2023-02-11T15:20:28;23.50;;;8.90;;
30681;SDS011;17439;48.092;11.842;2023-02-11T15:22:58;23.13;;;6.88;;
30681;SDS011;17439;48.092;11.842;2023-02-11T15:25:27;15.48;;;5.63;;
30681;SDS011;17439;48.092;11.842;2023-02-11T15:27:55;18.45;;;7.47;;
30681;SDS011;17439;48.092;11.842;2023-02-11T15:32:49;16.77;;;7.70;;
30681;SDS011;17439;48.092;11.842;2023-02-11T15:35:21;17.27;;;6.80;;
30681;SDS011;17439;48.092;11.842;2023-02-11T15:37:47;20.55;;;8.93;;
30681;SDS011;17439;48.092;11.842;2023-02-11T15:42:53;20.75;;;7.55;;
30681;SDS011;17439;48.092;11.842;2023-02-11T15:45:25;28.85;;;11.70;;
30681;SDS011;17439;48.092;11.842;2023-02-11T15:50:41;25.00;;;10.85;;
30681;SDS011;17439;48.092;11.842;2023-02-11T15:55:48;21.80;;;9.70;;
30681;SDS011;17439;48.092;11.842;2023-02-11T15:58:16;19.58;;;8.57;;
30681;SDS011;17439;48.092;11.842;2023-02-11T16:00:45;21.83;;;9.43;;
30681;SDS011;17439;48.092;11.842;2023-02-11T16:03:18;19.20;;;8.38;;
30681;SDS011;17439;48.092;11.842;2023-02-11T16:05:50;12.73;;;5.95;;
30681;SDS011;17439;48.092;11.842;2023-02-11T16:08:21;15.88;;;6.38;;
30681;SDS011;17439;48.092;11.842;2023-02-11T16:11:01;23.13;;;10.50;;
30681;SDS011;17439;48.092;11.842;2023-02-11T16:13:29;22.25;;;10.07;;
30681;SDS011;17439;48.092;11.842;2023-02-11T16:15:59;15.90;;;7.57;;
30681;SDS011;17439;48.092;11.842;2023-02-11T16:18:38;17.08;;;8.07;;
30681;SDS011;17439;48.092;11.842;2023-02-11T16:21:30;18.60;;;8.65;;
30681;SDS011;17439;48.092;11.842;2023-02-11T16:23:59;15.32;;;7.97;;
30681;SDS011;17439;48.092;11.842;2023-02-11T16:28:53;21.92;;;7.95;;
30681;SDS011;17439;48.092;11.842;2023-02-11T16:31:32;18.60;;;8.02;;
30681;SDS011;17439;48.092;11.842;2023-02-11T16:34:10;15.93;;;7.28;;
30681;SDS011;17439;48.092;11.842;2023-02-11T16:36:39;27.67;;;7.25;;
30681;SDS011;17439;48.092;11.842;2023-02-11T16:39:07;24.00;;;9.20;;
30681;SDS011;17439;48.092;11.842;2023-02-11T16:41:33;19.38;;;8.90;;
30681;SDS011;17439;48.092;11.842;2023-02-11T16:44:00;21.17;;;8.90;;
30681;SDS011;17439;48.092;11.842;2023-02-11T16:46:26;22.33;;;8.55;;
30681;SDS011;17439;48.092;11.842;2023-02-11T16:48:53;20.95;;;9.15;;
30681;SDS011;17439;48.092;11.842;2023-02-11T16:53:47;17.95;;;8.32;;
30681;SDS011;17439;48.092;11.842;2023-02-11T16:56:15;22.95;;;9.90;;
30681;SDS011;17439;48.092;11.842;2023-02-11T16:58:43;22.48;;;9.50;;
30681;SDS011;17439;48.092;11.842;2023-02-11T17:01:10;27.80;;;10.57;;